createdAt,value
2023-05-06T00:01:24.454Z,5.63
2023-05-06T00:03:52.053Z,5.30
2023-05-06T00:06:19.091Z,6.13
2023-05-06T00:08:46.733Z,5.45
2023-05-06T00:11:14.044Z,6.13
2023-05-06T00:13:41.852Z,6.90
2023-05-06T00:16:09.447Z,6.60
2023-05-06T00:18:36.397Z,7.22
2023-05-06T00:21:03.250Z,6.78
2023-05-06T00:23:30.147Z,6.50
2023-05-06T00:25:57.387Z,7.03
2023-05-06T00:28:24.342Z,7.70
2023-05-06T00:30:51.287Z,8.68
2023-05-06T00:33:18.104Z,9.25
2023-05-06T00:35:44.953Z,9.05
2023-05-06T00:38:15.345Z,8.57
2023-05-06T00:40:42.674Z,8.80
2023-05-06T00:43:11.099Z,9.85
2023-05-06T00:45:38.990Z,9.90
2023-05-06T00:48:07.165Z,9.60
2023-05-06T00:50:35.581Z,8.90
2023-05-06T00:53:04.356Z,8.43
2023-05-06T00:55:31.842Z,8.18
2023-05-06T00:57:59.672Z,8.18
2023-05-06T01:00:27.215Z,7.18
2023-05-06T01:02:54.660Z,8.10
2023-05-06T01:05:23.926Z,8.07
2023-05-06T01:08:26.128Z,8.07
2023-05-06T01:11:05.408Z,7.63
2023-05-06T01:13:35.871Z,6.72
2023-05-06T01:16:05.070Z,7.70
2023-05-06T01:18:33.153Z,7.50
2023-05-06T01:21:01.924Z,8.23
2023-05-06T01:23:28.776Z,7.40
2023-05-06T01:25:55.829Z,8.07
2023-05-06T01:28:23.098Z,7.90
2023-05-06T01:30:55.669Z,7.30
2023-05-06T01:33:42.197Z,6.63
2023-05-06T01:36:12.926Z,6.00
2023-05-06T01:39:09.552Z,6.20
2023-05-06T01:41:40.819Z,6.35
2023-05-06T01:44:09.253Z,6.13
2023-05-06T01:46:36.552Z,6.45
2023-05-06T01:49:11.570Z,6.22
2023-05-06T01:51:38.789Z,6.03
2023-05-06T01:54:05.897Z,5.70
2023-05-06T01:56:33.200Z,5.68
2023-05-06T01:59:00.323Z,6.07
2023-05-06T02:01:27.773Z,5.97
2023-05-06T02:03:55.307Z,5.53
2023-05-06T02:06:22.346Z,6.35
2023-05-06T02:08:49.710Z,5.72
2023-05-06T02:11:17.475Z,5.85
2023-05-06T02:13:45.347Z,5.97
2023-05-06T02:16:12.232Z,5.40
2023-05-06T02:18:39.156Z,5.78
2023-05-06T02:21:05.984Z,5.75
2023-05-06T02:23:32.839Z,4.82
2023-05-06T02:26:00.177Z,6.13
2023-05-06T02:28:27.054Z,6.13
2023-05-06T02:30:58.073Z,5.75
2023-05-06T02:33:25.014Z,6.28
2023-05-06T02:35:51.915Z,5.82
2023-05-06T02:38:19.714Z,5.97
2023-05-06T02:40:46.600Z,5.25
2023-05-06T02:43:13.505Z,6.47
2023-05-06T02:45:40.497Z,5.50
2023-05-06T02:48:07.806Z,5.85
2023-05-06T02:50:36.265Z,5.20
2023-05-06T02:53:03.508Z,6.25
2023-05-06T02:55:30.592Z,6.32
2023-05-06T02:57:57.434Z,6.15
2023-05-06T03:00:24.338Z,6.25
2023-05-06T03:02:51.260Z,6.00
2023-05-06T03:05:18.231Z,6.13
2023-05-06T03:07:45.074Z,6.53
2023-05-06T03:10:11.946Z,6.22
2023-05-06T03:12:39.312Z,6.05
2023-05-06T03:15:07.269Z,6.55
2023-05-06T03:17:34.330Z,6.05
2023-05-06T03:20:01.259Z,6.40
2023-05-06T03:22:28.575Z,6.18
2023-05-06T03:24:55.384Z,6.45
2023-05-06T03:27:22.323Z,6.32
2023-05-06T03:29:49.164Z,6.15
2023-05-06T03:32:16.009Z,6.30
2023-05-06T03:34:43.263Z,6.13
2023-05-06T03:37:10.211Z,6.18
2023-05-06T03:39:37.145Z,6.07
2023-05-06T03:42:05.562Z,6.55
2023-05-06T03:44:33.981Z,6.03
2023-05-06T03:47:01.208Z,6.47
2023-05-06T03:49:28.084Z,6.78
2023-05-06T03:51:55.082Z,6.90
2023-05-06T03:54:22.383Z,6.75
2023-05-06T03:56:49.246Z,6.35
2023-05-06T03:59:16.500Z,6.20
2023-05-06T04:01:43.494Z,6.35
2023-05-06T04:04:10.926Z,6.05
2023-05-06T04:06:37.859Z,6.00
2023-05-06T04:09:06.335Z,6.32
2023-05-06T04:11:33.267Z,6.55
2023-05-06T04:14:00.164Z,5.88
2023-05-06T04:16:27.048Z,5.63
2023-05-06T04:18:53.948Z,5.80
2023-05-06T04:21:20.927Z,6.22
2023-05-06T04:23:47.796Z,6.25
2023-05-06T04:26:14.641Z,7.05
2023-05-06T04:28:41.925Z,6.05
2023-05-06T04:31:09.301Z,5.68
2023-05-06T04:33:36.570Z,6.88
2023-05-06T04:36:03.597Z,7.63
2023-05-06T04:38:32.162Z,7.38
2023-05-06T04:40:59.656Z,6.38
2023-05-06T04:43:27.738Z,6.18
2023-05-06T04:45:55.319Z,6.43
2023-05-06T04:48:23.078Z,6.13
2023-05-06T04:50:51.082Z,5.90
2023-05-06T04:53:18.434Z,5.80
2023-05-06T04:55:45.745Z,6.22
2023-05-06T04:58:12.612Z,5.80
2023-05-06T05:00:39.685Z,5.10
2023-05-06T05:03:06.668Z,5.72
2023-05-06T05:05:34.821Z,5.10
2023-05-06T05:08:02.136Z,5.32
2023-05-06T05:10:29.495Z,5.70
2023-05-06T05:12:56.710Z,5.53
2023-05-06T05:15:23.762Z,5.65
2023-05-06T05:17:51.349Z,7.43
2023-05-06T05:20:18.306Z,6.00
2023-05-06T05:22:45.531Z,5.35
2023-05-06T05:25:13.083Z,5.38
2023-05-06T05:27:42.220Z,5.20
2023-05-06T05:30:09.718Z,5.57
2023-05-06T05:32:36.619Z,4.85
2023-05-06T05:35:03.845Z,4.70
2023-05-06T05:37:31.271Z,4.82
2023-05-06T05:39:58.755Z,4.72
2023-05-06T05:42:25.660Z,5.28
2023-05-06T05:44:52.906Z,5.18
2023-05-06T05:47:19.782Z,4.57
2023-05-06T05:49:46.632Z,4.65
2023-05-06T05:52:13.901Z,5.07
2023-05-06T05:54:40.912Z,4.60
2023-05-06T05:57:07.904Z,4.60
2023-05-06T05:59:34.986Z,5.07
2023-05-06T06:02:01.910Z,4.80
2023-05-06T06:04:28.847Z,4.82
2023-05-06T06:06:58.798Z,4.97
2023-05-06T06:09:25.786Z,4.60
2023-05-06T06:11:53.200Z,5.05
2023-05-06T06:14:20.514Z,4.60
2023-05-06T06:16:47.421Z,4.53
2023-05-06T06:19:15.078Z,5.22
2023-05-06T06:21:41.983Z,4.78
2023-05-06T06:24:08.902Z,4.43
2023-05-06T06:26:36.146Z,5.15
2023-05-06T06:29:03.408Z,7.82
2023-05-06T06:31:30.465Z,12.00
2023-05-06T06:33:57.328Z,5.00
2023-05-06T06:36:24.308Z,5.30
2023-05-06T06:38:51.586Z,5.18
2023-05-06T06:41:18.829Z,4.80
2023-05-06T06:43:46.057Z,5.00
2023-05-06T06:46:12.963Z,4.75
2023-05-06T06:48:39.839Z,4.88
2023-05-06T06:51:07.122Z,5.05
2023-05-06T06:53:33.941Z,5.03
2023-05-06T06:56:01.252Z,4.93
2023-05-06T06:58:28.190Z,4.60
2023-05-06T07:00:55.058Z,4.55
2023-05-06T07:03:22.362Z,5.20
2023-05-06T07:05:50.194Z,4.53
2023-05-06T07:08:17.297Z,4.72
2023-05-06T07:10:44.253Z,4.95
2023-05-06T07:13:11.168Z,4.78
2023-05-06T07:15:38.095Z,4.90
2023-05-06T07:18:05.276Z,4.57
2023-05-06T07:20:32.229Z,4.75
2023-05-06T07:22:59.067Z,4.30
2023-05-06T07:25:27.522Z,4.22
2023-05-06T07:27:54.348Z,4.57
2023-05-06T07:30:23.159Z,4.30
2023-05-06T07:32:50.561Z,4.30
2023-05-06T07:35:17.563Z,4.10
2023-05-06T07:37:46.505Z,9.07
2023-05-06T07:40:13.569Z,5.03
2023-05-06T07:42:42.987Z,6.30
2023-05-06T07:45:11.295Z,4.57
2023-05-06T07:47:38.493Z,4.15
2023-05-06T07:50:06.976Z,3.85
2023-05-06T07:52:34.260Z,5.63
2023-05-06T07:55:01.314Z,8.05
2023-05-06T07:57:28.694Z,4.15
2023-05-06T07:59:55.668Z,4.78
2023-05-06T08:02:23.037Z,4.53
2023-05-06T08:04:51.904Z,4.47
2023-05-06T08:07:19.534Z,4.20
2023-05-06T08:09:46.640Z,4.50
2023-05-06T08:12:18.164Z,4.82
2023-05-06T08:14:45.498Z,4.60
2023-05-06T08:17:13.501Z,5.90
2023-05-06T08:19:43.555Z,4.60
2023-05-06T08:22:10.443Z,4.55
2023-05-06T08:24:37.605Z,4.03
2023-05-06T08:27:05.022Z,4.35
2023-05-06T08:29:35.165Z,4.32
2023-05-06T08:32:02.460Z,4.57
2023-05-06T08:34:29.505Z,4.50
2023-05-06T08:36:56.798Z,4.32
2023-05-06T08:39:23.787Z,4.95
2023-05-06T08:41:54.418Z,4.70
2023-05-06T08:44:24.573Z,4.70
2023-05-06T08:46:51.747Z,4.32
2023-05-06T08:49:19.053Z,4.35
2023-05-06T08:51:51.309Z,4.70
2023-05-06T08:54:19.521Z,5.78
2023-05-06T08:56:53.940Z,4.72
2023-05-06T08:59:24.911Z,4.80
2023-05-06T09:01:54.831Z,4.00
2023-05-06T09:04:22.144Z,4.75
2023-05-06T09:06:48.997Z,4.25
2023-05-06T09:09:16.019Z,4.55
2023-05-06T09:11:42.870Z,3.80
2023-05-06T09:14:11.159Z,4.40
2023-05-06T09:16:40.204Z,3.67
2023-05-06T09:19:07.280Z,3.65
2023-05-06T09:21:38.823Z,3.97
2023-05-06T09:24:07.557Z,3.50
2023-05-06T09:26:36.198Z,3.70
2023-05-06T09:29:04.290Z,3.63
2023-05-06T09:31:31.584Z,3.60
2023-05-06T09:34:00.719Z,3.25
2023-05-06T09:36:28.808Z,3.50
2023-05-06T09:38:56.387Z,3.63
2023-05-06T09:41:27.942Z,4.15
2023-05-06T09:43:55.990Z,3.88
2023-05-06T09:46:24.225Z,3.92
2023-05-06T09:48:52.572Z,4.72
2023-05-06T09:51:20.084Z,3.75
2023-05-06T09:53:47.848Z,5.85
2023-05-06T09:56:16.217Z,4.65
2023-05-06T09:58:43.798Z,3.85
2023-05-06T10:01:15.176Z,3.25
2023-05-06T10:03:48.281Z,5.03
2023-05-06T10:06:15.910Z,3.45
2023-05-06T10:08:46.139Z,3.85
2023-05-06T10:11:14.669Z,3.33
2023-05-06T10:13:42.971Z,3.67
2023-05-06T10:16:11.810Z,3.25
2023-05-06T10:18:41.544Z,3.88
2023-05-06T10:21:21.909Z,3.30
2023-05-06T10:23:57.187Z,3.08
2023-05-06T10:26:26.580Z,3.40
2023-05-06T10:28:54.926Z,2.55
2023-05-06T10:31:21.912Z,3.42
2023-05-06T10:33:52.842Z,2.95
2023-05-06T10:36:25.970Z,2.85
2023-05-06T10:38:56.420Z,3.15
2023-05-06T10:41:27.840Z,2.92
2023-05-06T10:43:57.682Z,2.83
2023-05-06T10:46:29.184Z,3.08
2023-05-06T10:49:11.299Z,3.10
2023-05-06T10:51:42.255Z,2.80
2023-05-06T10:54:10.605Z,3.20
2023-05-06T10:56:38.358Z,2.63
2023-05-06T10:59:10.582Z,3.10
2023-05-06T11:01:39.484Z,2.83
2023-05-06T11:04:19.268Z,2.80
2023-05-06T11:06:47.164Z,2.88
2023-05-06T11:09:25.286Z,2.80
2023-05-06T11:11:58.810Z,2.80
2023-05-06T11:14:36.812Z,2.60
2023-05-06T11:17:08.646Z,2.75
2023-05-06T11:19:37.625Z,2.75
2023-05-06T11:22:06.598Z,2.20
2023-05-06T11:24:41.760Z,2.15
2023-05-06T11:27:09.755Z,2.30
2023-05-06T11:29:37.332Z,2.10
2023-05-06T11:32:06.258Z,2.38
2023-05-06T11:34:33.319Z,2.67
2023-05-06T11:37:02.735Z,2.35
2023-05-06T11:39:38.744Z,1.90
2023-05-06T11:42:08.573Z,2.03
2023-05-06T11:44:39.824Z,2.33
2023-05-06T11:47:09.508Z,1.83
2023-05-06T11:49:43.803Z,2.10
2023-05-06T11:52:13.137Z,1.80
2023-05-06T11:54:41.217Z,1.95
2023-05-06T11:57:09.337Z,2.00
2023-05-06T11:59:38.089Z,1.70
2023-05-06T12:02:10.105Z,1.77
2023-05-06T12:04:41.798Z,1.60
2023-05-06T12:07:10.736Z,1.50
2023-05-06T12:09:40.525Z,1.58
2023-05-06T12:12:08.394Z,1.50
2023-05-06T12:14:36.686Z,1.70
2023-05-06T12:17:04.966Z,1.52
2023-05-06T12:19:32.974Z,1.38
2023-05-06T12:22:20.148Z,1.70
2023-05-06T12:24:48.409Z,1.20
2023-05-06T12:27:28.543Z,1.10
2023-05-06T12:29:56.689Z,1.38
2023-05-06T12:32:24.008Z,1.10
2023-05-06T12:34:50.908Z,0.90
2023-05-06T12:37:29.273Z,1.20
2023-05-06T12:40:07.680Z,0.77
2023-05-06T12:42:34.797Z,0.80
2023-05-06T12:45:14.190Z,1.25
2023-05-06T12:47:55.864Z,0.90
2023-05-06T12:50:32.976Z,0.90
2023-05-06T12:53:00.124Z,0.90
2023-05-06T12:55:27.359Z,0.77
2023-05-06T12:57:57.117Z,0.80
2023-05-06T13:00:24.848Z,0.85
2023-05-06T13:02:52.031Z,1.20
2023-05-06T13:05:19.027Z,0.88
2023-05-06T13:07:45.843Z,0.80
2023-05-06T13:10:12.997Z,1.15
2023-05-06T13:12:40.125Z,1.00
2023-05-06T13:15:08.644Z,0.90
2023-05-06T13:17:36.138Z,0.88
2023-05-06T13:20:05.130Z,0.80
2023-05-06T13:22:40.306Z,0.85
2023-05-06T13:25:12.331Z,0.73
2023-05-06T13:27:39.198Z,0.90
2023-05-06T13:30:06.809Z,0.90
2023-05-06T13:32:33.804Z,0.90
2023-05-06T13:35:01.143Z,1.27
2023-05-06T13:37:28.020Z,1.00
2023-05-06T13:39:54.888Z,1.20
2023-05-06T13:42:21.783Z,0.70
2023-05-06T13:44:48.999Z,0.90
2023-05-06T13:47:16.342Z,0.90
2023-05-06T13:49:43.635Z,0.85
2023-05-06T13:52:10.565Z,1.05
2023-05-06T13:54:37.719Z,1.20
2023-05-06T13:57:04.631Z,0.90
2023-05-06T13:59:31.505Z,0.93
2023-05-06T14:01:58.959Z,0.90
2023-05-06T14:04:25.998Z,0.90
2023-05-06T14:06:53.350Z,0.98
2023-05-06T14:09:20.399Z,1.10
2023-05-06T14:11:47.354Z,1.00
2023-05-06T14:14:15.529Z,0.95
2023-05-06T14:16:42.504Z,0.85
2023-05-06T14:19:09.773Z,0.82
2023-05-06T14:21:36.650Z,0.60
2023-05-06T14:24:04.658Z,0.77
2023-05-06T14:26:33.169Z,0.90
2023-05-06T14:29:00.055Z,0.80
2023-05-06T14:31:27.897Z,0.80
2023-05-06T14:33:54.853Z,0.70
2023-05-06T14:36:21.890Z,0.80
2023-05-06T14:38:48.781Z,0.60
2023-05-06T14:41:16.256Z,0.80
2023-05-06T14:43:43.637Z,0.80
2023-05-06T14:46:11.272Z,0.88
2023-05-06T14:48:38.718Z,0.73
2023-05-06T14:51:06.340Z,0.93
2023-05-06T14:53:33.190Z,0.70
2023-05-06T14:56:00.052Z,0.73
2023-05-06T14:58:27.280Z,0.80
2023-05-06T15:00:54.162Z,0.73
2023-05-06T15:03:20.997Z,0.73
2023-05-06T15:05:48.570Z,0.90
2023-05-06T15:08:15.491Z,0.80
2023-05-06T15:10:42.377Z,0.65
2023-05-06T15:13:09.975Z,0.80
2023-05-06T15:15:36.857Z,0.82
2023-05-06T15:18:03.806Z,0.70
2023-05-06T15:20:30.946Z,0.80
2023-05-06T15:22:57.795Z,0.85
2023-05-06T15:25:34.945Z,0.70
2023-05-06T15:28:04.821Z,0.70
2023-05-06T15:30:32.197Z,0.77
2023-05-06T15:33:00.112Z,0.60
2023-05-06T15:35:27.254Z,0.80
2023-05-06T15:38:00.471Z,0.80
2023-05-06T15:40:27.418Z,0.60
2023-05-06T15:42:54.465Z,0.75
2023-05-06T15:45:23.132Z,0.80
2023-05-06T15:47:50.488Z,0.90
2023-05-06T15:50:31.946Z,0.73
2023-05-06T15:53:02.123Z,0.90
2023-05-06T15:55:34.958Z,0.90
2023-05-06T15:58:08.712Z,0.80
2023-05-06T16:00:35.724Z,0.70
2023-05-06T16:03:02.776Z,0.90
2023-05-06T16:05:30.338Z,0.88
2023-05-06T16:07:57.343Z,0.88
2023-05-06T16:10:24.206Z,0.98
2023-05-06T16:12:51.185Z,0.88
2023-05-06T16:15:20.114Z,1.02
2023-05-06T16:17:47.023Z,0.88
2023-05-06T16:20:14.260Z,1.10
2023-05-06T16:22:41.733Z,1.08
2023-05-06T16:25:08.978Z,1.00
2023-05-06T16:27:35.840Z,0.80
2023-05-06T16:30:03.327Z,1.23
2023-05-06T16:32:30.716Z,1.00
2023-05-06T16:34:59.383Z,1.08
2023-05-06T16:37:26.309Z,1.08
2023-05-06T16:39:53.114Z,1.15
2023-05-06T16:42:19.968Z,1.20
2023-05-06T16:44:46.881Z,1.42
2023-05-06T16:47:13.947Z,1.20
2023-05-06T16:49:40.910Z,1.20
2023-05-06T16:52:07.763Z,1.30
2023-05-06T16:54:34.707Z,1.30
2023-05-06T16:57:01.539Z,1.00
2023-05-06T16:59:28.416Z,1.23
2023-05-06T17:01:55.798Z,1.20
2023-05-06T17:04:24.790Z,1.00
2023-05-06T17:06:51.686Z,1.70
2023-05-06T17:09:18.576Z,0.98
2023-05-06T17:11:45.616Z,1.40
2023-05-06T17:14:14.031Z,1.27
2023-05-06T17:16:43.158Z,1.17
2023-05-06T17:19:10.183Z,1.45
2023-05-06T17:21:37.538Z,1.02
2023-05-06T17:24:05.018Z,1.20
2023-05-06T17:26:33.154Z,1.30
2023-05-06T17:29:00.881Z,1.17
2023-05-06T17:31:27.780Z,1.17
2023-05-06T17:33:55.107Z,1.63
2023-05-06T17:36:21.967Z,1.55
2023-05-06T17:39:01.208Z,1.60
2023-05-06T17:41:28.214Z,5.28
2023-05-06T17:43:55.481Z,1.45
2023-05-06T17:46:23.380Z,1.90
2023-05-06T17:48:50.779Z,2.78
2023-05-06T17:51:19.028Z,2.53
2023-05-06T17:53:46.288Z,2.33
2023-05-06T17:56:13.284Z,2.20
2023-05-06T17:58:40.247Z,2.33
2023-05-06T18:01:07.559Z,1.95
2023-05-06T18:03:34.995Z,2.50
2023-05-06T18:06:02.527Z,2.50
2023-05-06T18:08:30.010Z,2.22
2023-05-06T18:10:56.951Z,2.10
2023-05-06T18:13:23.829Z,2.60
2023-05-06T18:15:50.814Z,2.35
2023-05-06T18:18:18.131Z,2.55
2023-05-06T18:20:44.968Z,2.00
2023-05-06T18:23:11.867Z,2.40
2023-05-06T18:25:38.723Z,2.33
2023-05-06T18:28:05.603Z,2.90
2023-05-06T18:30:32.454Z,2.42
2023-05-06T18:32:59.405Z,2.58
2023-05-06T18:35:26.403Z,2.50
2023-05-06T18:37:53.241Z,2.90
2023-05-06T18:40:20.292Z,3.15
2023-05-06T18:42:47.663Z,2.85
2023-05-06T18:45:16.199Z,3.47
2023-05-06T18:47:43.491Z,3.58
2023-05-06T18:50:11.052Z,6.25
2023-05-06T18:52:38.352Z,6.45
2023-05-06T18:55:06.030Z,6.35
2023-05-06T18:57:33.386Z,6.93
2023-05-06T19:00:00.366Z,7.90
2023-05-06T19:02:27.413Z,6.00
2023-05-06T19:04:54.364Z,4.60
2023-05-06T19:07:21.232Z,7.07
2023-05-06T19:09:48.623Z,5.75
2023-05-06T19:12:16.037Z,7.28
2023-05-06T19:14:42.940Z,6.75
2023-05-06T19:17:11.285Z,7.20
2023-05-06T19:19:38.347Z,6.00
2023-05-06T19:22:05.206Z,6.30
2023-05-06T19:24:32.118Z,4.90
2023-05-06T19:26:58.941Z,5.47
2023-05-06T19:29:26.328Z,4.97
2023-05-06T19:31:53.212Z,4.97
2023-05-06T19:34:20.479Z,4.78
2023-05-06T19:36:47.763Z,5.03
2023-05-06T19:39:16.365Z,4.65
2023-05-06T19:41:43.383Z,4.70
2023-05-06T19:44:10.232Z,4.60
2023-05-06T19:46:37.104Z,4.00
2023-05-06T19:49:04.420Z,4.65
2023-05-06T19:51:31.349Z,4.18
2023-05-06T19:53:58.295Z,4.10
2023-05-06T19:56:25.223Z,3.97
2023-05-06T19:58:52.508Z,4.22
2023-05-06T20:01:22.670Z,4.00
2023-05-06T20:03:50.301Z,3.85
2023-05-06T20:06:17.407Z,4.03
2023-05-06T20:08:46.003Z,4.13
2023-05-06T20:11:12.927Z,4.60
2023-05-06T20:13:39.866Z,3.63
2023-05-06T20:16:06.839Z,3.40
2023-05-06T20:18:33.721Z,3.97
2023-05-06T20:21:00.564Z,4.13
2023-05-06T20:23:27.867Z,4.35
2023-05-06T20:25:54.900Z,3.78
2023-05-06T20:28:21.853Z,3.42
2023-05-06T20:30:48.932Z,3.22
2023-05-06T20:33:16.641Z,3.13
2023-05-06T20:35:43.919Z,3.85
2023-05-06T20:38:12.416Z,3.03
2023-05-06T20:40:39.670Z,3.50
2023-05-06T20:43:06.527Z,3.88
2023-05-06T20:45:33.424Z,3.33
2023-05-06T20:48:00.691Z,3.25
2023-05-06T20:50:29.568Z,3.65
2023-05-06T20:52:57.073Z,3.58
2023-05-06T20:55:24.655Z,3.28
2023-05-06T20:57:52.128Z,3.92
2023-05-06T21:00:19.395Z,3.33
2023-05-06T21:02:47.637Z,4.10
2023-05-06T21:05:14.822Z,3.78
2023-05-06T21:07:41.843Z,4.07
2023-05-06T21:10:11.345Z,4.07
2023-05-06T21:12:38.677Z,3.28
2023-05-06T21:15:06.276Z,3.88
2023-05-06T21:17:33.191Z,3.90
2023-05-06T21:20:00.195Z,4.18
2023-05-06T21:22:27.151Z,3.90
2023-05-06T21:24:55.938Z,3.67
2023-05-06T21:27:23.411Z,3.67
2023-05-06T21:29:50.348Z,3.33
2023-05-06T21:32:17.714Z,4.05
2023-05-06T21:34:44.862Z,3.20
2023-05-06T21:37:11.799Z,3.35
2023-05-06T21:39:41.255Z,3.08
2023-05-06T21:42:08.328Z,3.20
2023-05-06T21:44:35.176Z,3.33
2023-05-06T21:47:02.428Z,3.75
2023-05-06T21:49:29.546Z,3.70
2023-05-06T21:51:56.355Z,4.00
2023-05-06T21:54:24.180Z,3.47
2023-05-06T21:56:51.490Z,3.65
2023-05-06T21:59:19.851Z,3.42
2023-05-06T22:01:47.251Z,3.08
2023-05-06T22:04:16.923Z,3.30
2023-05-06T22:06:44.136Z,3.08
2023-05-06T22:09:12.065Z,3.25
2023-05-06T22:11:38.915Z,3.20
2023-05-06T22:14:06.781Z,3.22
2023-05-06T22:16:35.379Z,3.00
2023-05-06T22:19:04.057Z,2.90
2023-05-06T22:21:32.565Z,2.90
2023-05-06T22:23:59.620Z,3.17
2023-05-06T22:26:28.241Z,2.72
2023-05-06T22:28:58.378Z,3.10
2023-05-06T22:31:26.115Z,3.17
2023-05-06T22:33:58.096Z,3.13
2023-05-06T22:36:29.429Z,2.83
2023-05-06T22:38:56.628Z,2.92
2023-05-06T22:41:23.581Z,2.53
2023-05-06T22:43:50.973Z,3.13
2023-05-06T22:46:18.205Z,3.13
2023-05-06T22:48:46.349Z,3.00
2023-05-06T22:51:16.082Z,3.40
2023-05-06T22:53:43.544Z,3.50
2023-05-06T22:56:11.212Z,3.13
2023-05-06T22:58:38.129Z,3.25
2023-05-06T23:01:07.342Z,3.30
2023-05-06T23:03:35.998Z,3.72
2023-05-06T23:06:04.522Z,3.65
2023-05-06T23:08:31.943Z,3.28
2023-05-06T23:10:58.898Z,3.40
2023-05-06T23:13:26.628Z,3.20
2023-05-06T23:15:54.225Z,3.00
2023-05-06T23:18:21.492Z,3.40
2023-05-06T23:20:48.965Z,3.30
2023-05-06T23:23:15.879Z,3.65
2023-05-06T23:25:43.252Z,3.50
2023-05-06T23:28:10.119Z,3.40
2023-05-06T23:30:37.065Z,3.63
2023-05-06T23:33:04.500Z,3.42
2023-05-06T23:35:31.397Z,3.20
2023-05-06T23:37:58.278Z,3.60
2023-05-06T23:40:25.289Z,3.33
2023-05-06T23:42:52.163Z,3.33
2023-05-06T23:45:20.370Z,2.80
2023-05-06T23:47:47.282Z,3.22
2023-05-06T23:50:14.547Z,3.20
2023-05-06T23:52:42.065Z,2.55
2023-05-06T23:55:09.769Z,2.83
2023-05-06T23:57:36.890Z,2.83
